sensor_id;sensor_type;location;lat;lon;timestamp;pressure;altitude;pressure_sealevel;temperature;humidity
75317;BME280;63913;51.492;10.368;2022-11-15T00:00:38;98091.88;;;8.48;80.93
75317;BME280;63913;51.492;10.368;2022-11-15T00:03:32;98095.25;;;8.47;81.21
75317;BME280;63913;51.492;10.368;2022-11-15T00:06:06;98103.25;;;8.60;81.07
75317;BME280;63913;51.492;10.368;2022-11-15T00:08:39;98086.84;;;8.52;81.29
75317;BME280;63913;51.492;10.368;2022-11-15T00:11:13;98090.00;;;8.40;81.82
75317;BME280;63913;51.492;10.368;2022-11-15T00:13:46;98098.78;;;8.52;82.00
75317;BME280;63913;51.492;10.368;2022-11-15T00:16:20;98097.06;;;8.52;82.04
75317;BME280;63913;51.492;10.368;2022-11-15T00:18:54;98098.50;;;8.39;81.82
75317;BME280;63913;51.492;10.368;2022-11-15T00:21:19;98100.00;;;8.31;82.09
75317;BME280;63913;51.492;10.368;2022-11-15T00:23:44;98092.97;;;8.24;82.10
75317;BME280;63913;51.492;10.368;2022-11-15T00:26:12;98091.97;;;8.19;82.52
75317;BME280;63913;51.492;10.368;2022-11-15T00:28:37;98087.53;;;8.12;82.48
75317;BME280;63913;51.492;10.368;2022-11-15T00:31:05;98093.38;;;8.07;82.70
75317;BME280;63913;51.492;10.368;2022-11-15T00:33:31;98083.75;;;7.98;82.79
75317;BME280;63913;51.492;10.368;2022-11-15T00:36:05;98083.56;;;7.90;82.57
75317;BME280;63913;51.492;10.368;2022-11-15T00:38:32;98087.72;;;7.85;82.78
75317;BME280;63913;51.492;10.368;2022-11-15T00:40:58;98094.34;;;7.79;82.64
75317;BME280;63913;51.492;10.368;2022-11-15T00:43:24;98090.75;;;7.72;82.96
75317;BME280;63913;51.492;10.368;2022-11-15T00:45:49;98087.94;;;7.61;82.99
75317;BME280;63913;51.492;10.368;2022-11-15T00:48:14;98105.66;;;7.55;83.22
75317;BME280;63913;51.492;10.368;2022-11-15T00:50:39;98106.41;;;7.51;83.06
75317;BME280;63913;51.492;10.368;2022-11-15T00:53:05;98107.22;;;7.50;83.78
75317;BME280;63913;51.492;10.368;2022-11-15T00:55:30;98102.00;;;7.46;83.58
75317;BME280;63913;51.492;10.368;2022-11-15T00:57:55;98101.91;;;7.43;83.42
75317;BME280;63913;51.492;10.368;2022-11-15T01:00:21;98095.91;;;7.42;83.82
75317;BME280;63913;51.492;10.368;2022-11-15T01:02:46;98096.06;;;7.48;84.53
75317;BME280;63913;51.492;10.368;2022-11-15T01:05:11;98087.75;;;7.55;85.35
75317;BME280;63913;51.492;10.368;2022-11-15T01:07:36;98092.19;;;7.62;85.10
75317;BME280;63913;51.492;10.368;2022-11-15T01:10:03;98087.13;;;7.64;84.82
75317;BME280;63913;51.492;10.368;2022-11-15T01:12:28;98088.03;;;7.66;84.48
75317;BME280;63913;51.492;10.368;2022-11-15T01:14:53;98092.19;;;7.62;83.73
75317;BME280;63913;51.492;10.368;2022-11-15T01:17:19;98094.53;;;7.53;82.79
75317;BME280;63913;51.492;10.368;2022-11-15T01:19:44;98101.94;;;7.44;82.36
75317;BME280;63913;51.492;10.368;2022-11-15T01:22:09;98093.97;;;7.34;82.14
75317;BME280;63913;51.492;10.368;2022-11-15T01:24:35;98099.50;;;7.19;82.19
75317;BME280;63913;51.492;10.368;2022-11-15T01:27:00;98105.19;;;7.09;82.60
75317;BME280;63913;51.492;10.368;2022-11-15T01:29:25;98098.25;;;7.05;82.75
75317;BME280;63913;51.492;10.368;2022-11-15T01:31:53;98102.28;;;6.98;82.89
75317;BME280;63913;51.492;10.368;2022-11-15T01:34:18;98094.50;;;6.94;83.15
75317;BME280;63913;51.492;10.368;2022-11-15T01:36:43;98099.56;;;6.92;83.13
75317;BME280;63913;51.492;10.368;2022-11-15T01:39:09;98099.50;;;6.90;83.12
75317;BME280;63913;51.492;10.368;2022-11-15T01:41:34;98104.69;;;6.92;83.23
75317;BME280;63913;51.492;10.368;2022-11-15T01:44:34;98090.97;;;6.88;82.90
75317;BME280;63913;51.492;10.368;2022-11-15T01:47:10;98089.13;;;6.84;82.80
75317;BME280;63913;51.492;10.368;2022-11-15T01:49:39;98091.56;;;6.81;83.10
75317;BME280;63913;51.492;10.368;2022-11-15T01:52:10;98090.63;;;6.78;83.17
75317;BME280;63913;51.492;10.368;2022-11-15T01:54:38;98088.06;;;6.78;83.27
75317;BME280;63913;51.492;10.368;2022-11-15T01:57:09;98077.84;;;6.78;83.26
75317;BME280;63913;51.492;10.368;2022-11-15T01:59:37;98075.28;;;6.78;83.17
75317;BME280;63913;51.492;10.368;2022-11-15T02:02:03;98075.25;;;6.76;83.09
75317;BME280;63913;51.492;10.368;2022-11-15T02:04:31;98065.91;;;6.77;83.28
75317;BME280;63913;51.492;10.368;2022-11-15T02:06:58;98069.38;;;6.79;83.16
75317;BME280;63913;51.492;10.368;2022-11-15T02:09:24;98061.66;;;6.77;82.95
75317;BME280;63913;51.492;10.368;2022-11-15T02:11:50;98053.13;;;6.77;82.93
75317;BME280;63913;51.492;10.368;2022-11-15T02:14:18;98055.50;;;6.71;82.85
75317;BME280;63913;51.492;10.368;2022-11-15T02:22:51;98040.38;;;6.50;83.18
75317;BME280;63913;51.492;10.368;2022-11-15T02:28:26;98040.09;;;6.41;83.75
75317;BME280;63913;51.492;10.368;2022-11-15T02:33:39;98023.94;;;6.40;83.68
75317;BME280;63913;51.492;10.368;2022-11-15T02:36:15;98023.09;;;6.41;84.13
75317;BME280;63913;51.492;10.368;2022-11-15T02:38:49;98022.31;;;6.44;84.14
75317;BME280;63913;51.492;10.368;2022-11-15T02:41:48;98021.53;;;6.75;85.94
75317;BME280;63913;51.492;10.368;2022-11-15T02:46:57;98006.69;;;6.92;83.88
75317;BME280;63913;51.492;10.368;2022-11-15T02:49:45;98016.19;;;6.96;83.77
75317;BME280;63913;51.492;10.368;2022-11-15T02:52:15;98008.81;;;7.06;84.08
75317;BME280;63913;51.492;10.368;2022-11-15T02:54:41;97992.50;;;7.01;83.55
75317;BME280;63913;51.492;10.368;2022-11-15T02:57:18;98005.16;;;6.97;84.11
75317;BME280;63913;51.492;10.368;2022-11-15T03:00:02;98002.56;;;6.95;84.33
75317;BME280;63913;51.492;10.368;2022-11-15T03:05:35;98003.53;;;7.00;84.51
75317;BME280;63913;51.492;10.368;2022-11-15T03:08:05;98009.72;;;7.08;84.85
75317;BME280;63913;51.492;10.368;2022-11-15T03:16:15;97994.00;;;7.90;82.65
75317;BME280;63913;51.492;10.368;2022-11-15T03:18:48;97994.91;;;7.92;82.97
75317;BME280;63913;51.492;10.368;2022-11-15T03:21:16;97995.19;;;8.04;81.57
75317;BME280;63913;51.492;10.368;2022-11-15T03:23:44;97983.06;;;8.32;81.59
75317;BME280;63913;51.492;10.368;2022-11-15T03:26:14;97978.22;;;8.46;80.90
75317;BME280;63913;51.492;10.368;2022-11-15T03:29:04;97987.22;;;8.66;80.56
75317;BME280;63913;51.492;10.368;2022-11-15T03:31:34;97989.00;;;8.70;80.41
75317;BME280;63913;51.492;10.368;2022-11-15T03:34:25;97975.34;;;9.11;78.92
75317;BME280;63913;51.492;10.368;2022-11-15T03:36:52;97978.69;;;9.09;78.90
75317;BME280;63913;51.492;10.368;2022-11-15T03:39:18;97979.72;;;9.17;78.42
75317;BME280;63913;51.492;10.368;2022-11-15T03:42:09;97970.13;;;9.08;78.50
75317;BME280;63913;51.492;10.368;2022-11-15T03:47:11;97979.66;;;9.14;78.30
75317;BME280;63913;51.492;10.368;2022-11-15T03:49:42;97976.84;;;9.02;78.47
75317;BME280;63913;51.492;10.368;2022-11-15T03:52:10;97978.34;;;8.92;78.65
75317;BME280;63913;51.492;10.368;2022-11-15T03:54:36;97979.94;;;8.86;78.95
75317;BME280;63913;51.492;10.368;2022-11-15T03:57:01;97982.47;;;8.83;79.04
75317;BME280;63913;51.492;10.368;2022-11-15T03:59:26;97980.72;;;8.82;79.06
75317;BME280;63913;51.492;10.368;2022-11-15T04:01:51;97978.94;;;8.79;79.29
75317;BME280;63913;51.492;10.368;2022-11-15T04:04:17;97972.97;;;8.78;79.57
75317;BME280;63913;51.492;10.368;2022-11-15T04:06:42;97971.19;;;8.74;79.63
75317;BME280;63913;51.492;10.368;2022-11-15T04:09:07;97965.22;;;8.77;79.92
75317;BME280;63913;51.492;10.368;2022-11-15T04:11:33;97970.44;;;8.80;79.88
75317;BME280;63913;51.492;10.368;2022-11-15T04:13:58;97966.22;;;8.82;79.91
75317;BME280;63913;51.492;10.368;2022-11-15T04:16:23;97961.91;;;8.81;79.92
75317;BME280;63913;51.492;10.368;2022-11-15T04:18:49;97955.16;;;8.86;79.53
75317;BME280;63913;51.492;10.368;2022-11-15T04:21:34;97955.34;;;8.95;79.12
75317;BME280;63913;51.492;10.368;2022-11-15T04:24:19;97956.94;;;8.89;79.49
75317;BME280;63913;51.492;10.368;2022-11-15T04:26:44;97953.59;;;8.93;79.42
75317;BME280;63913;51.492;10.368;2022-11-15T04:29:09;97957.84;;;8.91;79.32
75317;BME280;63913;51.492;10.368;2022-11-15T04:31:53;97955.28;;;8.92;79.29
75317;BME280;63913;51.492;10.368;2022-11-15T04:34:18;97964.63;;;8.89;79.57
75317;BME280;63913;51.492;10.368;2022-11-15T04:36:44;97954.41;;;8.90;79.70
75317;BME280;63913;51.492;10.368;2022-11-15T04:39:28;97955.22;;;8.88;79.58
75317;BME280;63913;51.492;10.368;2022-11-15T04:41:53;97956.91;;;8.87;79.63
75317;BME280;63913;51.492;10.368;2022-11-15T04:44:18;97947.47;;;8.86;79.95
75317;BME280;63913;51.492;10.368;2022-11-15T04:46:43;97949.13;;;8.83;79.94
75317;BME280;63913;51.492;10.368;2022-11-15T04:49:09;97945.75;;;8.84;79.70
75317;BME280;63913;51.492;10.368;2022-11-15T04:51:34;97950.00;;;8.85;79.64
75317;BME280;63913;51.492;10.368;2022-11-15T04:54:00;97944.88;;;8.83;79.69
75317;BME280;63913;51.492;10.368;2022-11-15T04:56:25;97951.66;;;8.81;79.73
75317;BME280;63913;51.492;10.368;2022-11-15T04:58:50;97951.53;;;8.75;79.81
75317;BME280;63913;51.492;10.368;2022-11-15T05:01:16;97946.22;;;8.66;79.72
75317;BME280;63913;51.492;10.368;2022-11-15T05:03:42;97943.78;;;8.72;79.93
75317;BME280;63913;51.492;10.368;2022-11-15T05:06:27;97937.72;;;8.67;80.05
75317;BME280;63913;51.492;10.368;2022-11-15T05:08:52;97936.78;;;8.63;80.17
75317;BME280;63913;51.492;10.368;2022-11-15T05:11:18;97942.91;;;8.71;79.82
75317;BME280;63913;51.492;10.368;2022-11-15T05:13:43;97933.59;;;8.75;80.06
75317;BME280;63913;51.492;10.368;2022-11-15T05:16:09;97941.34;;;8.78;79.95
75317;BME280;63913;51.492;10.368;2022-11-15T05:18:34;97936.81;;;8.65;79.50
75317;BME280;63913;51.492;10.368;2022-11-15T05:21:07;97931.13;;;8.79;79.34
75317;BME280;63913;51.492;10.368;2022-11-15T05:23:34;97927.63;;;8.76;79.80
75317;BME280;63913;51.492;10.368;2022-11-15T05:26:00;97932.75;;;8.76;79.74
75317;BME280;63913;51.492;10.368;2022-11-15T05:28:25;97931.28;;;8.87;79.81
75317;BME280;63913;51.492;10.368;2022-11-15T05:30:51;97942.53;;;8.95;79.21
75317;BME280;63913;51.492;10.368;2022-11-15T05:33:17;97947.63;;;8.94;79.17
75317;BME280;63913;51.492;10.368;2022-11-15T05:35:46;97940.75;;;8.91;79.21
75317;BME280;63913;51.492;10.368;2022-11-15T05:38:13;97944.16;;;8.90;79.48
75317;BME280;63913;51.492;10.368;2022-11-15T05:40:39;97941.41;;;8.81;79.53
75317;BME280;63913;51.492;10.368;2022-11-15T05:43:04;97942.19;;;8.78;79.84
75317;BME280;63913;51.492;10.368;2022-11-15T05:45:32;97944.09;;;8.87;79.42
75317;BME280;63913;51.492;10.368;2022-11-15T05:48:00;97942.44;;;8.89;79.36
75317;BME280;63913;51.492;10.368;2022-11-15T05:50:29;97936.44;;;8.89;79.18
75317;BME280;63913;51.492;10.368;2022-11-15T05:52:55;97943.19;;;8.85;79.22
75317;BME280;63913;51.492;10.368;2022-11-15T05:55:26;97943.88;;;8.76;79.11
75317;BME280;63913;51.492;10.368;2022-11-15T05:58:10;97946.28;;;8.69;79.21
75317;BME280;63913;51.492;10.368;2022-11-15T06:01:04;97951.91;;;8.53;78.83
75317;BME280;63913;51.492;10.368;2022-11-15T06:03:38;97956.66;;;8.36;79.22
75317;BME280;63913;51.492;10.368;2022-11-15T06:06:21;97953.00;;;8.25;79.30
75317;BME280;63913;51.492;10.368;2022-11-15T06:08:55;97967.22;;;8.14;79.64
75317;BME280;63913;51.492;10.368;2022-11-15T06:11:39;97972.91;;;8.00;79.21
75317;BME280;63913;51.492;10.368;2022-11-15T06:14:23;97972.50;;;7.84;79.53
75317;BME280;63913;51.492;10.368;2022-11-15T06:16:56;97988.41;;;7.72;79.44
75317;BME280;63913;51.492;10.368;2022-11-15T06:19:30;97984.69;;;7.59;79.60
75317;BME280;63913;51.492;10.368;2022-11-15T06:22:04;97986.91;;;7.47;80.06
75317;BME280;63913;51.492;10.368;2022-11-15T06:24:37;97988.59;;;7.45;80.33
75317;BME280;63913;51.492;10.368;2022-11-15T06:27:21;97993.31;;;7.32;80.08
75317;BME280;63913;51.492;10.368;2022-11-15T06:29:55;97992.53;;;7.03;80.26
75317;BME280;63913;51.492;10.368;2022-11-15T06:32:39;97998.53;;;7.03;80.65
75317;BME280;63913;51.492;10.368;2022-11-15T06:35:22;97996.63;;;6.98;80.88
75317;BME280;63913;51.492;10.368;2022-11-15T06:38:08;97995.59;;;6.91;80.84
75317;BME280;63913;51.492;10.368;2022-11-15T06:40:42;98007.34;;;6.84;81.25
75317;BME280;63913;51.492;10.368;2022-11-15T06:43:07;97993.66;;;6.82;81.33
75317;BME280;63913;51.492;10.368;2022-11-15T06:45:33;98002.06;;;6.78;81.39
75317;BME280;63913;51.492;10.368;2022-11-15T06:47:58;98017.25;;;6.74;81.52
75317;BME280;63913;51.492;10.368;2022-11-15T06:50:24;98008.59;;;6.69;81.33
75317;BME280;63913;51.492;10.368;2022-11-15T06:52:50;98010.19;;;6.65;81.42
75317;BME280;63913;51.492;10.368;2022-11-15T06:55:15;98022.00;;;6.62;80.93
75317;BME280;63913;51.492;10.368;2022-11-15T06:57:51;98014.25;;;6.59;81.20
75317;BME280;63913;51.492;10.368;2022-11-15T07:00:19;98022.50;;;6.50;81.12
75317;BME280;63913;51.492;10.368;2022-11-15T07:02:45;98024.00;;;6.43;81.59
75317;BME280;63913;51.492;10.368;2022-11-15T07:05:11;98020.50;;;6.40;81.78
75317;BME280;63913;51.492;10.368;2022-11-15T07:07:36;98015.19;;;6.34;81.46
75317;BME280;63913;51.492;10.368;2022-11-15T07:10:02;98027.09;;;6.33;81.98
75317;BME280;63913;51.492;10.368;2022-11-15T07:12:27;98023.66;;;6.33;81.97
75317;BME280;63913;51.492;10.368;2022-11-15T07:14:53;98031.19;;;6.28;82.38
75317;BME280;63913;51.492;10.368;2022-11-15T07:17:18;98031.97;;;6.26;82.01
75317;BME280;63913;51.492;10.368;2022-11-15T07:19:43;98020.88;;;6.25;82.39
75317;BME280;63913;51.492;10.368;2022-11-15T07:22:09;98020.06;;;6.26;82.69
75317;BME280;63913;51.492;10.368;2022-11-15T07:24:34;98023.53;;;6.28;82.63
75317;BME280;63913;51.492;10.368;2022-11-15T07:26:59;98028.78;;;6.33;82.57
75317;BME280;63913;51.492;10.368;2022-11-15T07:29:25;98024.53;;;6.33;82.24
75317;BME280;63913;51.492;10.368;2022-11-15T07:31:50;98026.81;;;6.24;83.16
75317;BME280;63913;51.492;10.368;2022-11-15T07:34:16;98030.28;;;6.26;83.25
75317;BME280;63913;51.492;10.368;2022-11-15T07:36:42;98032.94;;;6.29;83.29
75317;BME280;63913;51.492;10.368;2022-11-15T07:39:07;98034.66;;;6.30;83.35
75317;BME280;63913;51.492;10.368;2022-11-15T07:41:32;98033.97;;;6.36;82.88
75317;BME280;63913;51.492;10.368;2022-11-15T07:43:58;98034.03;;;6.37;82.76
75317;BME280;63913;51.492;10.368;2022-11-15T07:46:23;98028.06;;;6.37;82.87
75317;BME280;63913;51.492;10.368;2022-11-15T07:48:48;98029.81;;;6.38;82.67
75317;BME280;63913;51.492;10.368;2022-11-15T07:51:15;98029.75;;;6.36;82.43
75317;BME280;63913;51.492;10.368;2022-11-15T07:53:42;98026.31;;;6.36;82.45
75317;BME280;63913;51.492;10.368;2022-11-15T07:56:07;98026.38;;;6.37;82.78
75317;BME280;63913;51.492;10.368;2022-11-15T07:58:33;98018.72;;;6.37;82.85
75317;BME280;63913;51.492;10.368;2022-11-15T08:00:58;98019.66;;;6.41;82.95
75317;BME280;63913;51.492;10.368;2022-11-15T08:03:27;98013.03;;;6.46;83.06
75317;BME280;63913;51.492;10.368;2022-11-15T08:05:52;98014.03;;;6.51;83.04
75317;BME280;63913;51.492;10.368;2022-11-15T08:08:18;98012.50;;;6.56;83.14
75317;BME280;63913;51.492;10.368;2022-11-15T08:10:43;98009.13;;;6.59;83.18
75317;BME280;63913;51.492;10.368;2022-11-15T08:13:11;98005.06;;;6.64;83.57
75317;BME280;63913;51.492;10.368;2022-11-15T08:15:37;98009.41;;;6.68;83.51
75317;BME280;63913;51.492;10.368;2022-11-15T08:18:05;98006.03;;;6.69;83.74
75317;BME280;63913;51.492;10.368;2022-11-15T08:20:31;97999.41;;;6.75;83.53
75317;BME280;63913;51.492;10.368;2022-11-15T08:22:58;98003.75;;;6.78;83.44
75317;BME280;63913;51.492;10.368;2022-11-15T08:25:24;97995.34;;;6.82;83.22
75317;BME280;63913;51.492;10.368;2022-11-15T08:27:56;97993.75;;;6.85;83.13
75317;BME280;63913;51.492;10.368;2022-11-15T08:30:22;97983.31;;;6.78;83.38
75317;BME280;63913;51.492;10.368;2022-11-15T08:32:48;97991.03;;;6.79;83.37
75317;BME280;63913;51.492;10.368;2022-11-15T08:35:14;97976.59;;;6.81;83.35
75317;BME280;63913;51.492;10.368;2022-11-15T08:37:39;97974.03;;;6.81;83.42
75317;BME280;63913;51.492;10.368;2022-11-15T08:40:05;97980.97;;;6.85;83.48
75317;BME280;63913;51.492;10.368;2022-11-15T08:42:31;97976.84;;;6.89;82.89
75317;BME280;63913;51.492;10.368;2022-11-15T08:44:56;97974.28;;;6.89;83.53
75317;BME280;63913;51.492;10.368;2022-11-15T08:47:22;97971.75;;;6.90;83.34
75317;BME280;63913;51.492;10.368;2022-11-15T08:49:47;97971.84;;;6.94;82.90
75317;BME280;63913;51.492;10.368;2022-11-15T08:52:13;97965.13;;;6.97;83.45
75317;BME280;63913;51.492;10.368;2022-11-15T08:54:39;97970.38;;;7.02;83.27
75317;BME280;63913;51.492;10.368;2022-11-15T08:57:04;97956.81;;;7.06;83.41
75317;BME280;63913;51.492;10.368;2022-11-15T08:59:30;97957.91;;;7.14;83.48
75317;BME280;63913;51.492;10.368;2022-11-15T09:01:55;97952.97;;;7.20;83.53
75317;BME280;63913;51.492;10.368;2022-11-15T09:04:20;97950.75;;;7.34;83.23
75317;BME280;63913;51.492;10.368;2022-11-15T09:06:45;97956.13;;;7.43;83.45
75317;BME280;63913;51.492;10.368;2022-11-15T09:09:11;97952.25;;;7.58;83.22
75317;BME280;63913;51.492;10.368;2022-11-15T09:11:36;97939.66;;;7.66;82.75
75317;BME280;63913;51.492;10.368;2022-11-15T09:14:02;97953.63;;;7.80;82.82
75317;BME280;63913;51.492;10.368;2022-11-15T09:16:27;97956.38;;;7.86;82.20
75317;BME280;63913;51.492;10.368;2022-11-15T09:18:53;97952.09;;;7.87;82.19
75317;BME280;63913;51.492;10.368;2022-11-15T09:21:19;97944.34;;;7.84;81.44
75317;BME280;63913;51.492;10.368;2022-11-15T09:23:44;97940.06;;;7.83;81.72
75317;BME280;63913;51.492;10.368;2022-11-15T09:26:09;97949.38;;;7.81;81.85
75317;BME280;63913;51.492;10.368;2022-11-15T09:28:35;97944.34;;;7.84;81.77
75317;BME280;63913;51.492;10.368;2022-11-15T09:31:03;97943.53;;;7.85;81.62
75317;BME280;63913;51.492;10.368;2022-11-15T09:33:29;97950.38;;;7.87;81.49
75317;BME280;63913;51.492;10.368;2022-11-15T09:36:07;97945.31;;;7.89;81.04
75317;BME280;63913;51.492;10.368;2022-11-15T09:38:34;97957.38;;;7.93;81.21
75317;BME280;63913;51.492;10.368;2022-11-15T09:44:10;97946.41;;;7.98;80.90
75317;BME280;63913;51.492;10.368;2022-11-15T09:46:57;97945.63;;;8.01;81.19
75317;BME280;63913;51.492;10.368;2022-11-15T09:49:24;97936.28;;;8.04;81.34
75317;BME280;63913;51.492;10.368;2022-11-15T09:51:53;97935.56;;;8.09;81.33
75317;BME280;63913;51.492;10.368;2022-11-15T09:54:28;97935.69;;;8.15;81.13
75317;BME280;63913;51.492;10.368;2022-11-15T09:57:15;97923.00;;;8.21;81.12
75317;BME280;63913;51.492;10.368;2022-11-15T10:04:49;97924.91;;;8.29;80.65
75317;BME280;63913;51.492;10.368;2022-11-15T10:10:17;97899.38;;;8.31;80.81
75317;BME280;63913;51.492;10.368;2022-11-15T10:12:47;97913.13;;;8.36;81.07
75317;BME280;63913;51.492;10.368;2022-11-15T10:15:16;97908.13;;;8.40;81.02
75317;BME280;63913;51.492;10.368;2022-11-15T10:18:12;97903.13;;;8.47;80.77
75317;BME280;63913;51.492;10.368;2022-11-15T10:20:50;97898.09;;;8.53;80.56
75317;BME280;63913;51.492;10.368;2022-11-15T10:23:19;97894.81;;;8.58;80.66
75317;BME280;63913;51.492;10.368;2022-11-15T10:25:45;97896.72;;;8.67;80.54
75317;BME280;63913;51.492;10.368;2022-11-15T10:30:48;97900.44;;;8.83;79.92
75317;BME280;63913;51.492;10.368;2022-11-15T10:33:33;97895.44;;;8.90;79.56
75317;BME280;63913;51.492;10.368;2022-11-15T10:41:20;97880.38;;;9.08;79.31
75317;BME280;63913;51.492;10.368;2022-11-15T10:46:37;97872.19;;;9.28;78.94
75317;BME280;63913;51.492;10.368;2022-11-15T10:49:25;97874.06;;;9.38;79.14
75317;BME280;63913;51.492;10.368;2022-11-15T10:54:37;97865.81;;;9.57;78.76
75317;BME280;63913;51.492;10.368;2022-11-15T10:57:10;97867.94;;;9.81;77.39
75317;BME280;63913;51.492;10.368;2022-11-15T10:59:37;97862.78;;;9.82;77.95
75317;BME280;63913;51.492;10.368;2022-11-15T11:04:51;97858.53;;;9.83;77.22
75317;BME280;63913;51.492;10.368;2022-11-15T11:07:23;97864.53;;;9.85;76.73
75317;BME280;63913;51.492;10.368;2022-11-15T11:10:17;97856.81;;;9.83;76.92
75317;BME280;63913;51.492;10.368;2022-11-15T11:12:44;97855.16;;;9.85;77.19
75317;BME280;63913;51.492;10.368;2022-11-15T11:15:12;97856.81;;;9.83;77.31
75317;BME280;63913;51.492;10.368;2022-11-15T11:17:57;97854.25;;;9.83;77.71
75317;BME280;63913;51.492;10.368;2022-11-15T11:20:39;97856.00;;;9.86;77.91
75317;BME280;63913;51.492;10.368;2022-11-15T11:28:55;97856.19;;;9.97;77.48
75317;BME280;63913;51.492;10.368;2022-11-15T11:37:00;97852.88;;;10.07;77.74
75317;BME280;63913;51.492;10.368;2022-11-15T11:45:10;97841.00;;;10.16;77.05
75317;BME280;63913;51.492;10.368;2022-11-15T11:47:46;97833.41;;;10.19;77.20
75317;BME280;63913;51.492;10.368;2022-11-15T11:50:20;97842.84;;;10.20;77.44
75317;BME280;63913;51.492;10.368;2022-11-15T11:53:04;97842.88;;;10.25;77.81
75317;BME280;63913;51.492;10.368;2022-11-15T11:55:39;97835.97;;;10.22;77.56
75317;BME280;63913;51.492;10.368;2022-11-15T11:58:32;97835.16;;;10.25;77.52
75317;BME280;63913;51.492;10.368;2022-11-15T12:06:51;97840.34;;;10.28;77.86
75317;BME280;63913;51.492;10.368;2022-11-15T12:17:01;97830.09;;;10.29;77.34
75317;BME280;63913;51.492;10.368;2022-11-15T12:19:28;97825.78;;;10.27;77.39
75317;BME280;63913;51.492;10.368;2022-11-15T12:22:20;97817.22;;;10.26;77.56
75317;BME280;63913;51.492;10.368;2022-11-15T12:24:56;97825.72;;;10.22;77.99
75317;BME280;63913;51.492;10.368;2022-11-15T12:27:35;97824.84;;;10.22;77.50
75317;BME280;63913;51.492;10.368;2022-11-15T12:30:11;97824.81;;;10.19;77.57
75317;BME280;63913;51.492;10.368;2022-11-15T12:32:39;97825.59;;;10.16;78.05
75317;BME280;63913;51.492;10.368;2022-11-15T12:35:21;97812.81;;;10.18;77.78
75317;BME280;63913;51.492;10.368;2022-11-15T12:37:50;97798.28;;;10.18;77.61
75317;BME280;63913;51.492;10.368;2022-11-15T12:40:27;97793.91;;;10.16;77.86
75317;BME280;63913;51.492;10.368;2022-11-15T12:43:40;97796.47;;;10.14;77.81
75317;BME280;63913;51.492;10.368;2022-11-15T13:17:40;97764.84;;;10.98;75.36
75317;BME280;63913;51.492;10.368;2022-11-15T13:30:38;97751.88;;;10.86;74.79
75317;BME280;63913;51.492;10.368;2022-11-15T13:33:15;97744.97;;;10.81;74.49
75317;BME280;63913;51.492;10.368;2022-11-15T13:35:46;97747.50;;;10.76;74.94
75317;BME280;63913;51.492;10.368;2022-11-15T13:38:29;97744.84;;;10.67;75.39
75317;BME280;63913;51.492;10.368;2022-11-15T13:40:56;97745.66;;;10.61;75.18
75317;BME280;63913;51.492;10.368;2022-11-15T13:48:30;97740.47;;;10.58;75.53
75317;BME280;63913;51.492;10.368;2022-11-15T13:50:56;97734.47;;;10.58;75.34
75317;BME280;63913;51.492;10.368;2022-11-15T13:53:23;97731.03;;;10.57;75.71
75317;BME280;63913;51.492;10.368;2022-11-15T13:55:49;97728.44;;;10.56;75.84
75317;BME280;63913;51.492;10.368;2022-11-15T13:58:14;97721.59;;;10.56;75.96
75317;BME280;63913;51.492;10.368;2022-11-15T14:00:42;97719.06;;;10.59;75.83
75317;BME280;63913;51.492;10.368;2022-11-15T14:03:33;97718.22;;;10.63;75.98
75317;BME280;63913;51.492;10.368;2022-11-15T14:06:16;97704.56;;;10.70;75.28
75317;BME280;63913;51.492;10.368;2022-11-15T14:09:02;97698.59;;;10.71;75.29
75317;BME280;63913;51.492;10.368;2022-11-15T14:11:28;97679.78;;;10.76;75.40
75317;BME280;63913;51.492;10.368;2022-11-15T14:14:23;97688.38;;;10.81;75.38
75317;BME280;63913;51.492;10.368;2022-11-15T14:16:52;97689.25;;;10.78;75.09
75317;BME280;63913;51.492;10.368;2022-11-15T14:22:09;97684.94;;;10.80;75.03
75317;BME280;63913;51.492;10.368;2022-11-15T14:24:36;97690.06;;;10.79;74.92
75317;BME280;63913;51.492;10.368;2022-11-15T14:29:43;97678.88;;;10.72;75.01
75317;BME280;63913;51.492;10.368;2022-11-15T14:32:15;97673.75;;;10.69;74.95
75317;BME280;63913;51.492;10.368;2022-11-15T14:34:41;97676.28;;;10.67;74.60
75317;BME280;63913;51.492;10.368;2022-11-15T14:37:18;97666.84;;;10.65;74.43
75317;BME280;63913;51.492;10.368;2022-11-15T14:39:44;97671.09;;;10.61;74.61
75317;BME280;63913;51.492;10.368;2022-11-15T14:42:09;97677.94;;;10.59;74.72
75317;BME280;63913;51.492;10.368;2022-11-15T14:44:34;97679.63;;;10.59;74.61
75317;BME280;63913;51.492;10.368;2022-11-15T14:47:00;97674.47;;;10.57;74.70
75317;BME280;63913;51.492;10.368;2022-11-15T14:49:25;97669.38;;;10.60;74.43
75317;BME280;63913;51.492;10.368;2022-11-15T14:51:51;97671.94;;;10.60;74.75
75317;BME280;63913;51.492;10.368;2022-11-15T14:54:16;97666.81;;;10.63;73.95
75317;BME280;63913;51.492;10.368;2022-11-15T14:56:41;97675.38;;;10.61;74.23
75317;BME280;63913;51.492;10.368;2022-11-15T14:59:07;97670.22;;;10.62;74.05
75317;BME280;63913;51.492;10.368;2022-11-15T15:01:33;97667.63;;;10.56;74.26
75317;BME280;63913;51.492;10.368;2022-11-15T15:03:58;97671.88;;;10.54;74.68
75317;BME280;63913;51.492;10.368;2022-11-15T15:06:24;97666.72;;;10.51;74.70
75317;BME280;63913;51.492;10.368;2022-11-15T15:08:49;97661.53;;;10.47;74.72
75317;BME280;63913;51.492;10.368;2022-11-15T15:11:22;97669.22;;;10.42;74.80
75317;BME280;63913;51.492;10.368;2022-11-15T15:13:48;97674.31;;;10.41;74.88
75317;BME280;63913;51.492;10.368;2022-11-15T15:16:13;97673.44;;;10.39;74.69
75317;BME280;63913;51.492;10.368;2022-11-15T15:18:39;97665.72;;;10.36;74.71
75317;BME280;63913;51.492;10.368;2022-11-15T15:21:17;97663.97;;;10.33;75.06
75317;BME280;63913;51.492;10.368;2022-11-15T15:23:44;97655.41;;;10.29;75.13
75317;BME280;63913;51.492;10.368;2022-11-15T15:26:09;97657.06;;;10.26;75.23
75317;BME280;63913;51.492;10.368;2022-11-15T15:28:34;97645.91;;;10.25;74.99